createdAt,value
2022-09-18T00:01:33.107Z,16.53
2022-09-18T00:04:02.900Z,16.53
2022-09-18T00:06:36.106Z,16.49
2022-09-18T00:09:06.651Z,16.48
2022-09-18T00:11:37.838Z,16.48
2022-09-18T00:14:06.656Z,16.47
2022-09-18T00:16:34.576Z,16.45
2022-09-18T00:19:02.488Z,16.43
2022-09-18T00:21:32.786Z,16.41
2022-09-18T00:24:03.984Z,16.40
2022-09-18T00:26:31.466Z,16.38
2022-09-18T00:28:59.320Z,16.38
2022-09-18T00:31:29.888Z,16.36
2022-09-18T00:33:58.177Z,16.34
2022-09-18T00:36:25.723Z,16.33
2022-09-18T00:38:54.530Z,16.28
2022-09-18T00:41:24.922Z,16.24
2022-09-18T00:43:53.914Z,16.22
2022-09-18T00:46:29.520Z,16.16
2022-09-18T00:49:06.355Z,16.12
2022-09-18T00:51:36.924Z,16.07
2022-09-18T00:54:21.566Z,16.00
2022-09-18T00:56:54.094Z,15.98
2022-09-18T00:59:26.813Z,15.96
2022-09-18T01:01:56.732Z,15.96
2022-09-18T01:04:25.761Z,15.98
2022-09-18T01:07:05.554Z,15.98
2022-09-18T01:09:45.672Z,16.00
2022-09-18T01:12:26.582Z,16.04
2022-09-18T01:15:05.613Z,16.07
2022-09-18T01:17:45.924Z,16.08
2022-09-18T01:20:35.620Z,16.07
2022-09-18T01:23:42.316Z,16.03
2022-09-18T01:26:37.482Z,16.01
2022-09-18T01:29:13.999Z,16.03
2022-09-18T01:31:51.344Z,16.04
2022-09-18T01:34:31.170Z,16.05
2022-09-18T01:37:06.361Z,16.03
2022-09-18T01:39:42.899Z,16.02
2022-09-18T01:42:13.776Z,16.01
2022-09-18T01:44:46.570Z,15.98
2022-09-18T01:47:18.436Z,15.95
2022-09-18T01:49:48.615Z,15.95
2022-09-18T01:52:23.738Z,15.91
2022-09-18T01:54:57.166Z,15.90
2022-09-18T01:57:33.230Z,15.90
2022-09-18T02:00:07.478Z,15.88
2022-09-18T02:02:42.703Z,15.90
2022-09-18T02:05:18.587Z,15.89
2022-09-18T02:07:58.214Z,15.88
2022-09-18T02:10:28.996Z,15.89
2022-09-18T02:12:57.806Z,15.88
2022-09-18T02:15:32.334Z,15.90
2022-09-18T02:18:06.528Z,15.91
2022-09-18T02:20:38.010Z,15.93
2022-09-18T02:23:09.034Z,15.90
2022-09-18T02:25:43.968Z,15.90
2022-09-18T02:28:16.499Z,15.92
2022-09-18T02:30:45.384Z,15.92
2022-09-18T02:33:29.004Z,15.89
2022-09-18T02:36:40.941Z,15.87
2022-09-18T02:39:41.903Z,15.86
2022-09-18T02:42:27.632Z,15.84
2022-09-18T02:45:08.445Z,15.84
2022-09-18T02:47:57.714Z,15.80
2022-09-18T02:50:34.956Z,15.76
2022-09-18T02:53:10.692Z,15.72
2022-09-18T02:55:46.201Z,15.67
2022-09-18T02:58:21.234Z,15.65
2022-09-18T03:00:50.575Z,15.65
2022-09-18T03:03:19.396Z,15.64
2022-09-18T03:05:46.865Z,15.64
2022-09-18T03:08:14.107Z,15.62
2022-09-18T03:10:41.804Z,15.60
2022-09-18T03:13:09.253Z,15.58
2022-09-18T03:15:36.462Z,15.55
2022-09-18T03:18:03.788Z,15.51
2022-09-18T03:20:32.542Z,15.50
2022-09-18T03:22:59.802Z,15.48
2022-09-18T03:25:27.147Z,15.46
2022-09-18T03:27:55.437Z,15.46
2022-09-18T03:30:23.136Z,15.42
2022-09-18T03:32:50.479Z,15.40
2022-09-18T03:35:17.733Z,15.38
2022-09-18T03:37:46.826Z,15.35
2022-09-18T03:40:14.462Z,15.34
2022-09-18T03:42:43.348Z,15.35
2022-09-18T03:45:12.201Z,15.33
2022-09-18T03:47:39.664Z,15.30
2022-09-18T03:50:08.098Z,15.28
2022-09-18T03:52:35.576Z,15.27
2022-09-18T03:55:04.723Z,15.26
2022-09-18T03:57:32.072Z,15.25
2022-09-18T03:59:59.311Z,15.24
2022-09-18T04:02:26.685Z,15.26
2022-09-18T04:04:54.022Z,15.32
2022-09-18T04:07:21.355Z,15.39
2022-09-18T04:09:48.568Z,15.44
2022-09-18T04:12:17.192Z,15.50
2022-09-18T04:14:44.416Z,15.55
2022-09-18T04:17:11.639Z,15.58
2022-09-18T04:19:38.919Z,15.58
2022-09-18T04:22:06.218Z,15.59
2022-09-18T04:24:35.331Z,15.62
2022-09-18T04:27:02.610Z,15.62
2022-09-18T04:29:31.230Z,15.61
2022-09-18T04:31:58.500Z,15.60
2022-09-18T04:34:25.730Z,15.57
2022-09-18T04:36:53.102Z,15.56
2022-09-18T04:39:20.385Z,15.53
2022-09-18T04:41:47.633Z,15.50
2022-09-18T04:44:14.839Z,15.47
2022-09-18T04:46:43.633Z,15.41
2022-09-18T04:49:11.463Z,15.39
2022-09-18T04:51:38.785Z,15.43
2022-09-18T04:54:06.115Z,15.47
2022-09-18T04:56:33.402Z,15.53
2022-09-18T04:59:04.042Z,15.57
2022-09-18T05:01:31.326Z,15.58
2022-09-18T05:04:00.121Z,15.56
2022-09-18T05:06:27.386Z,15.53
2022-09-18T05:08:54.626Z,15.48
2022-09-18T05:11:21.838Z,15.42
2022-09-18T05:13:49.713Z,15.36
2022-09-18T05:16:17.072Z,15.31
2022-09-18T05:18:44.488Z,15.29
2022-09-18T05:21:13.137Z,15.25
2022-09-18T05:23:40.401Z,15.24
2022-09-18T05:26:07.640Z,15.20
2022-09-18T05:28:34.948Z,15.19
2022-09-18T05:31:02.438Z,15.18
2022-09-18T05:33:30.596Z,15.18
2022-09-18T05:35:58.633Z,15.15
2022-09-18T05:38:27.788Z,15.11
2022-09-18T05:40:59.782Z,15.08
2022-09-18T05:43:27.036Z,15.08
2022-09-18T05:45:54.309Z,15.10
2022-09-18T05:48:22.170Z,15.13
2022-09-18T05:50:51.886Z,15.15
2022-09-18T05:53:21.374Z,15.18
2022-09-18T05:55:50.111Z,15.18
2022-09-18T05:58:19.518Z,15.15
2022-09-18T06:00:47.600Z,15.14
2022-09-18T06:03:16.852Z,15.19
2022-09-18T06:05:51.928Z,15.21
2022-09-18T06:08:19.997Z,15.27
2022-09-18T06:10:47.406Z,15.33
2022-09-18T06:13:18.432Z,15.43
2022-09-18T06:15:48.392Z,15.53
2022-09-18T06:18:16.488Z,15.66
2022-09-18T06:20:51.053Z,15.75
2022-09-18T06:23:18.312Z,15.80
2022-09-18T06:25:45.513Z,15.85
2022-09-18T06:28:12.733Z,15.91
2022-09-18T06:30:41.312Z,15.94
2022-09-18T06:33:10.648Z,15.96
2022-09-18T06:35:38.632Z,15.99
2022-09-18T06:38:07.160Z,16.05
2022-09-18T06:40:35.702Z,16.13
2022-09-18T06:43:03.967Z,16.16
2022-09-18T06:45:32.430Z,16.20
2022-09-18T06:48:04.675Z,16.24
2022-09-18T06:50:32.160Z,16.33
2022-09-18T06:53:02.612Z,16.41
2022-09-18T06:55:31.754Z,16.56
2022-09-18T06:58:00.522Z,16.82
2022-09-18T07:00:28.591Z,16.99
2022-09-18T07:02:58.039Z,17.10
2022-09-18T07:05:30.147Z,17.40
2022-09-18T07:07:58.019Z,17.82
2022-09-18T07:10:26.335Z,18.28
2022-09-18T07:12:56.839Z,18.47
2022-09-18T07:15:25.314Z,18.48
2022-09-18T07:17:55.687Z,18.39
2022-09-18T07:20:23.052Z,18.30
2022-09-18T07:22:55.370Z,18.23
2022-09-18T07:25:23.390Z,18.15
2022-09-18T07:27:51.043Z,18.02
2022-09-18T07:30:18.835Z,17.92
2022-09-18T07:32:46.870Z,17.85
2022-09-18T07:35:14.381Z,17.85
2022-09-18T07:37:44.189Z,17.91
2022-09-18T07:40:12.998Z,18.02
2022-09-18T07:42:40.563Z,18.15
2022-09-18T07:45:08.546Z,18.25
2022-09-18T07:47:36.188Z,18.46
2022-09-18T07:50:03.880Z,18.70
2022-09-18T07:52:31.357Z,18.98
2022-09-18T07:54:59.131Z,19.05
2022-09-18T07:57:27.827Z,19.05
2022-09-18T07:59:55.053Z,19.11
2022-09-18T08:02:22.348Z,19.30
2022-09-18T08:04:49.601Z,20.04
2022-09-18T08:07:16.839Z,20.92
2022-09-18T08:09:44.096Z,21.72
2022-09-18T08:12:11.331Z,22.19
2022-09-18T08:14:41.043Z,22.33
2022-09-18T08:17:08.269Z,22.15
2022-09-18T08:19:35.505Z,21.80
2022-09-18T08:22:04.771Z,21.36
2022-09-18T08:24:32.087Z,21.02
2022-09-18T08:27:03.508Z,20.69
2022-09-18T08:29:30.925Z,20.39
2022-09-18T08:31:59.937Z,20.08
2022-09-18T08:34:27.258Z,19.93
2022-09-18T08:36:55.687Z,19.87
2022-09-18T08:39:23.173Z,20.30
2022-09-18T08:42:10.404Z,20.61
2022-09-18T08:44:48.309Z,21.24
2022-09-18T08:47:23.509Z,22.40
2022-09-18T08:49:57.762Z,23.60
2022-09-18T08:52:28.996Z,24.27
2022-09-18T08:55:04.519Z,25.35
2022-09-18T08:57:39.454Z,26.52
2022-09-18T09:00:16.939Z,27.34
2022-09-18T09:02:49.252Z,27.75
2022-09-18T09:05:20.411Z,27.35
2022-09-18T09:08:40.797Z,26.08
2022-09-18T09:11:17.843Z,25.35
2022-09-18T09:14:45.945Z,25.58
2022-09-18T09:17:23.525Z,26.25
2022-09-18T09:20:03.652Z,26.30
2022-09-18T09:22:42.884Z,25.99
2022-09-18T09:25:22.211Z,26.53
2022-09-18T09:27:58.933Z,27.18
2022-09-18T09:30:30.970Z,27.69
2022-09-18T09:33:11.923Z,28.33
2022-09-18T09:35:46.282Z,28.89
2022-09-18T09:38:41.301Z,28.92
2022-09-18T09:41:23.113Z,28.08
2022-09-18T09:44:03.186Z,27.56
2022-09-18T09:46:55.842Z,27.22
2022-09-18T09:49:27.777Z,26.74
2022-09-18T09:52:09.598Z,26.99
2022-09-18T09:54:37.353Z,26.68
2022-09-18T09:57:21.719Z,25.89
2022-09-18T10:00:07.825Z,25.09
2022-09-18T10:02:56.287Z,24.34
2022-09-18T10:05:32.221Z,23.67
2022-09-18T10:08:09.276Z,23.17
2022-09-18T10:10:45.291Z,22.67
2022-09-18T10:13:21.073Z,22.09
2022-09-18T10:15:53.687Z,21.63
2022-09-18T10:18:26.958Z,21.22
2022-09-18T10:21:02.145Z,20.80
2022-09-18T10:23:40.706Z,20.34
2022-09-18T10:26:17.686Z,19.91
2022-09-18T10:28:44.973Z,19.52
2022-09-18T10:31:14.203Z,19.18
2022-09-18T10:33:44.124Z,18.91
2022-09-18T10:36:28.582Z,18.62
2022-09-18T10:39:00.258Z,18.46
2022-09-18T10:41:35.920Z,18.27
2022-09-18T10:44:21.325Z,18.08
2022-09-18T10:46:56.504Z,18.01
2022-09-18T10:49:29.119Z,18.01
2022-09-18T10:52:28.437Z,17.93
2022-09-18T10:55:14.821Z,17.88
2022-09-18T10:57:45.834Z,17.88
2022-09-18T11:00:42.053Z,17.84
2022-09-18T11:03:40.189Z,17.85
2022-09-18T11:06:16.723Z,17.97
2022-09-18T11:08:48.893Z,18.32
2022-09-18T11:11:27.868Z,18.82
2022-09-18T11:14:01.088Z,19.24
2022-09-18T11:16:33.442Z,19.55
2022-09-18T11:19:07.372Z,19.77
2022-09-18T11:21:45.315Z,20.00
2022-09-18T11:24:23.055Z,20.38
2022-09-18T11:26:54.723Z,20.74
2022-09-18T11:29:30.748Z,20.91
2022-09-18T11:32:05.029Z,21.08
2022-09-18T11:34:37.327Z,21.15
2022-09-18T11:37:08.991Z,21.23
2022-09-18T11:39:42.000Z,21.36
2022-09-18T11:42:16.548Z,21.70
2022-09-18T11:44:45.373Z,21.94
2022-09-18T11:47:31.673Z,21.97
2022-09-18T11:50:16.169Z,21.94
2022-09-18T11:52:47.939Z,21.93
2022-09-18T11:55:30.966Z,21.93
2022-09-18T11:58:05.877Z,21.90
2022-09-18T12:00:42.513Z,21.91
2022-09-18T12:03:21.830Z,22.00
2022-09-18T12:05:58.405Z,22.17
2022-09-18T12:08:47.738Z,22.24
2022-09-18T12:11:25.935Z,22.12
2022-09-18T12:14:10.260Z,21.76
2022-09-18T12:16:52.303Z,21.34
2022-09-18T12:19:25.505Z,21.05
2022-09-18T12:22:01.718Z,20.79
2022-09-18T12:24:29.038Z,20.59
2022-09-18T12:27:14.172Z,20.60
2022-09-18T12:30:07.051Z,20.72
2022-09-18T12:33:13.390Z,20.68
2022-09-18T12:36:04.612Z,20.54
2022-09-18T12:38:55.336Z,20.37
2022-09-18T12:41:46.619Z,20.13
2022-09-18T12:44:54.862Z,19.86
2022-09-18T12:47:40.261Z,19.73
2022-09-18T12:50:37.683Z,19.62
2022-09-18T12:53:27.447Z,19.52
2022-09-18T12:56:16.396Z,19.43
2022-09-18T12:59:32.574Z,19.37
2022-09-18T13:02:22.175Z,19.37
2022-09-18T13:04:57.495Z,19.40
2022-09-18T13:07:32.659Z,19.42
2022-09-18T13:10:10.024Z,19.48
2022-09-18T13:12:44.726Z,19.57
2022-09-18T13:15:20.092Z,19.65
2022-09-18T13:17:55.222Z,19.74
2022-09-18T13:20:29.237Z,19.79
2022-09-18T13:22:57.542Z,19.86
2022-09-18T13:25:32.946Z,19.90
2022-09-18T13:28:05.019Z,20.01
2022-09-18T13:30:33.592Z,20.16
2022-09-18T13:33:02.776Z,20.43
2022-09-18T13:35:33.847Z,20.58
2022-09-18T13:38:13.477Z,20.69
2022-09-18T13:40:45.589Z,20.82
2022-09-18T13:43:40.735Z,20.90
2022-09-18T13:46:27.988Z,21.13
2022-09-18T13:48:58.417Z,21.23
2022-09-18T13:51:32.064Z,21.09
2022-09-18T13:54:19.755Z,20.91
2022-09-18T13:57:20.431Z,20.56
2022-09-18T13:59:55.605Z,20.36
2022-09-18T14:02:31.502Z,20.26
2022-09-18T14:05:29.951Z,20.14
2022-09-18T14:08:34.753Z,20.07
2022-09-18T14:11:16.125Z,20.02
2022-09-18T14:13:51.643Z,20.04
2022-09-18T14:16:41.363Z,20.04
2022-09-18T14:19:31.896Z,20.06
2022-09-18T14:22:01.454Z,20.16
2022-09-18T14:25:00.027Z,20.19
2022-09-18T14:27:41.964Z,20.28
2022-09-18T14:30:18.195Z,20.35
2022-09-18T14:33:03.727Z,20.39
2022-09-18T14:35:42.024Z,20.43
2022-09-18T14:38:28.295Z,20.43
2022-09-18T14:41:09.011Z,20.46
2022-09-18T14:43:39.885Z,20.47
2022-09-18T14:46:18.340Z,20.43
2022-09-18T14:48:45.812Z,20.40
2022-09-18T14:51:21.170Z,20.37
2022-09-18T14:53:53.986Z,20.40
2022-09-18T14:56:29.391Z,20.44
2022-09-18T14:59:03.152Z,20.51
2022-09-18T15:01:33.681Z,20.56
2022-09-18T15:04:04.835Z,20.56
2022-09-18T15:06:37.704Z,20.50
2022-09-18T15:09:10.964Z,20.47
2022-09-18T15:12:01.358Z,20.47
2022-09-18T15:14:39.433Z,20.48
2022-09-18T15:17:19.741Z,20.48
2022-09-18T15:19:59.742Z,20.34
2022-09-18T15:22:29.626Z,20.13
2022-09-18T15:25:01.758Z,19.90
2022-09-18T15:27:31.731Z,19.72
2022-09-18T15:30:04.945Z,19.61
2022-09-18T15:32:41.732Z,19.51
2022-09-18T15:35:19.770Z,19.42
2022-09-18T15:37:52.862Z,19.32
2022-09-18T15:40:29.077Z,19.14
2022-09-18T15:42:59.748Z,18.94
2022-09-18T15:45:29.841Z,18.75
2022-09-18T15:48:00.644Z,18.60
2022-09-18T15:50:42.006Z,18.44
2022-09-18T15:53:26.049Z,18.35
2022-09-18T15:56:07.465Z,18.32
2022-09-18T15:58:44.677Z,18.33
2022-09-18T16:01:22.962Z,18.36
2022-09-18T16:04:04.512Z,18.39
2022-09-18T16:06:43.556Z,18.42
2022-09-18T16:09:25.604Z,18.44
2022-09-18T16:11:54.355Z,18.53
2022-09-18T16:14:43.945Z,18.53
2022-09-18T16:17:37.002Z,18.53
2022-09-18T16:20:44.101Z,18.53
2022-09-18T16:23:26.987Z,18.54
2022-09-18T16:26:10.454Z,18.59
2022-09-18T16:28:43.157Z,18.61
2022-09-18T16:31:12.182Z,18.62
2022-09-18T16:33:51.473Z,18.57
2022-09-18T16:36:27.954Z,18.55
2022-09-18T16:38:56.692Z,18.50
2022-09-18T16:41:24.379Z,18.49
2022-09-18T16:43:53.974Z,18.50
2022-09-18T16:46:27.853Z,18.52
2022-09-18T16:48:56.119Z,18.56
2022-09-18T16:51:23.392Z,18.57
2022-09-18T16:53:50.693Z,18.59
2022-09-18T16:56:24.332Z,18.56
2022-09-18T16:58:56.193Z,18.57
2022-09-18T17:01:23.984Z,18.56
2022-09-18T17:03:51.855Z,18.57
2022-09-18T17:06:19.373Z,18.56
2022-09-18T17:08:47.024Z,18.55
2022-09-18T17:11:14.395Z,18.55
2022-09-18T17:13:41.601Z,18.51
2022-09-18T17:16:10.463Z,18.48
2022-09-18T17:18:37.860Z,18.43
2022-09-18T17:21:06.017Z,18.37
2022-09-18T17:23:33.887Z,18.30
2022-09-18T17:26:08.880Z,18.21
2022-09-18T17:28:36.773Z,18.14
2022-09-18T17:31:10.437Z,18.06
2022-09-18T17:33:38.924Z,18.02
2022-09-18T17:36:09.279Z,17.96
2022-09-18T17:38:37.930Z,17.92
2022-09-18T17:41:08.068Z,17.88
2022-09-18T17:43:35.712Z,17.85
2022-09-18T17:46:05.865Z,17.82
2022-09-18T17:48:35.129Z,17.79
2022-09-18T17:51:05.295Z,17.77
2022-09-18T17:53:33.853Z,17.75
2022-09-18T17:56:02.317Z,17.73
2022-09-18T17:58:31.194Z,17.74
2022-09-18T18:00:59.982Z,17.71
2022-09-18T18:03:28.175Z,17.70
2022-09-18T18:05:58.712Z,17.71
2022-09-18T18:08:27.321Z,17.72
2022-09-18T18:10:56.471Z,17.71
2022-09-18T18:13:24.161Z,17.72
2022-09-18T18:15:51.800Z,17.69
2022-09-18T18:18:19.788Z,17.70
2022-09-18T18:20:50.355Z,17.70
2022-09-18T18:23:19.527Z,17.71
2022-09-18T18:25:47.388Z,17.73
2022-09-18T18:28:14.987Z,17.72
2022-09-18T18:30:46.254Z,17.71
2022-09-18T18:33:14.739Z,17.70
2022-09-18T18:35:42.005Z,17.68
2022-09-18T18:38:09.455Z,17.67
2022-09-18T18:40:40.328Z,17.60
2022-09-18T18:43:14.364Z,17.51
2022-09-18T18:45:52.530Z,17.45
2022-09-18T18:48:19.824Z,17.43
2022-09-18T18:50:47.186Z,17.42
2022-09-18T18:53:15.591Z,17.42
2022-09-18T18:55:48.248Z,17.42
2022-09-18T18:58:15.800Z,17.43
2022-09-18T19:00:43.894Z,17.45
2022-09-18T19:03:11.257Z,17.49
2022-09-18T19:05:40.769Z,17.52
2022-09-18T19:08:09.266Z,17.59
2022-09-18T19:10:36.637Z,17.66
2022-09-18T19:13:06.259Z,17.71
2022-09-18T19:15:38.523Z,17.72
2022-09-18T19:18:05.947Z,17.72
2022-09-18T19:20:34.529Z,17.71
2022-09-18T19:23:01.752Z,17.68
2022-09-18T19:25:30.237Z,17.69
2022-09-18T19:27:57.957Z,17.71
2022-09-18T19:30:27.046Z,17.71
2022-09-18T19:32:55.564Z,17.74
2022-09-18T19:35:23.023Z,17.70
2022-09-18T19:37:50.292Z,17.64
2022-09-18T19:40:18.329Z,17.58
2022-09-18T19:42:55.511Z,17.51
2022-09-18T19:45:28.801Z,17.48
2022-09-18T19:47:56.452Z,17.44
2022-09-18T19:50:28.927Z,17.42
2022-09-18T19:52:56.766Z,17.42
2022-09-18T19:55:24.564Z,17.43
2022-09-18T19:57:56.287Z,17.43
2022-09-18T20:00:24.699Z,17.45
2022-09-18T20:02:57.429Z,17.41
2022-09-18T20:05:24.795Z,17.41
2022-09-18T20:07:52.456Z,17.36
2022-09-18T20:10:20.042Z,17.32
2022-09-18T20:12:47.731Z,17.30
2022-09-18T20:15:14.938Z,17.27
2022-09-18T20:17:42.197Z,17.26
2022-09-18T20:20:15.657Z,17.24
2022-09-18T20:22:44.268Z,17.24
2022-09-18T20:25:12.060Z,17.24
2022-09-18T20:27:41.845Z,17.27
2022-09-18T20:30:12.577Z,17.29
2022-09-18T20:32:40.944Z,17.31
2022-09-18T20:35:10.362Z,17.32
2022-09-18T20:37:37.805Z,17.31
2022-09-18T20:40:11.211Z,17.31
2022-09-18T20:42:38.775Z,17.30
2022-09-18T20:45:07.365Z,17.30
2022-09-18T20:47:36.926Z,17.28
2022-09-18T20:50:06.680Z,17.25
2022-09-18T20:52:37.721Z,17.25
2022-09-18T20:55:08.760Z,17.24
2022-09-18T20:57:37.099Z,17.24
2022-09-18T21:00:07.429Z,17.24
2022-09-18T21:02:35.420Z,17.22
2022-09-18T21:05:08.498Z,17.20
2022-09-18T21:07:37.374Z,17.20
2022-09-18T21:10:07.004Z,17.22
2022-09-18T21:12:40.320Z,17.21
2022-09-18T21:15:15.500Z,17.18
2022-09-18T21:17:43.550Z,17.15
2022-09-18T21:20:12.129Z,17.12
2022-09-18T21:23:03.215Z,17.11
2022-09-18T21:25:31.042Z,17.07
2022-09-18T21:27:58.775Z,17.07
2022-09-18T21:30:26.706Z,17.08
2022-09-18T21:32:55.730Z,17.09
2022-09-18T21:35:23.211Z,17.09
2022-09-18T21:37:55.129Z,17.12
2022-09-18T21:40:22.785Z,17.13
2022-09-18T21:42:50.636Z,17.16
2022-09-18T21:45:20.249Z,17.17
2022-09-18T21:47:49.560Z,17.17
2022-09-18T21:50:16.936Z,17.19
2022-09-18T21:52:44.286Z,17.20
2022-09-18T21:55:13.031Z,17.22
2022-09-18T21:57:40.417Z,17.22
2022-09-18T22:00:09.477Z,17.22
2022-09-18T22:02:36.806Z,17.22
2022-09-18T22:05:12.179Z,17.23
2022-09-18T22:07:40.766Z,17.20
2022-09-18T22:10:09.365Z,17.18
2022-09-18T22:12:38.953Z,17.16
2022-09-18T22:15:07.809Z,17.13
2022-09-18T22:17:35.087Z,17.11
2022-09-18T22:20:02.920Z,17.07
2022-09-18T22:22:30.382Z,17.07
2022-09-18T22:24:57.773Z,17.07
2022-09-18T22:27:25.044Z,17.06
2022-09-18T22:29:53.705Z,17.07
2022-09-18T22:32:21.097Z,17.08
2022-09-18T22:34:48.827Z,17.11
2022-09-18T22:37:16.087Z,17.13
2022-09-18T22:39:43.601Z,17.17
2022-09-18T22:42:10.841Z,17.18
2022-09-18T22:44:38.205Z,17.15
2022-09-18T22:47:06.977Z,17.11
2022-09-18T22:49:34.463Z,17.06
2022-09-18T22:52:02.243Z,17.02
2022-09-18T22:54:29.598Z,16.99
2022-09-18T22:56:56.928Z,16.95
2022-09-18T22:59:27.319Z,16.92
2022-09-18T23:01:58.221Z,16.86
2022-09-18T23:04:29.868Z,16.79
2022-09-18T23:06:59.259Z,16.76
2022-09-18T23:09:27.995Z,16.72
2022-09-18T23:11:56.745Z,16.66
2022-09-18T23:14:27.635Z,16.63
2022-09-18T23:16:56.456Z,16.61
2022-09-18T23:19:28.429Z,16.60
2022-09-18T23:21:56.705Z,16.59
2022-09-18T23:24:24.938Z,16.59
2022-09-18T23:26:56.783Z,16.54
2022-09-18T23:29:26.658Z,16.53
2022-09-18T23:31:58.944Z,16.52
2022-09-18T23:34:31.135Z,16.48
2022-09-18T23:36:58.895Z,16.46
2022-09-18T23:39:29.354Z,16.43
2022-09-18T23:41:59.287Z,16.41
2022-09-18T23:44:31.377Z,16.40
2022-09-18T23:46:59.953Z,16.39
2022-09-18T23:49:29.509Z,16.38
2022-09-18T23:51:57.545Z,16.36
2022-09-18T23:54:27.565Z,16.34
2022-09-18T23:56:55.589Z,16.31
2022-09-18T23:59:25.584Z,16.27
